sensor_id;sensor_type;location;lat;lon;timestamp;pressure;altitude;pressure_sealevel;temperature;humidity
11682;BME280;5897;42.640;23.310;2023-01-29T00:01:52;93956.91;;;1.31;100.00
11682;BME280;5897;42.640;23.310;2023-01-29T00:04:19;93953.44;;;1.27;98.34
11682;BME280;5897;42.640;23.310;2023-01-29T00:06:46;93960.56;;;1.16;96.16
11682;BME280;5897;42.640;23.310;2023-01-29T00:09:13;93945.88;;;0.89;98.11
11682;BME280;5897;42.640;23.310;2023-01-29T00:11:40;93965.41;;;0.71;98.44
11682;BME280;5897;42.640;23.310;2023-01-29T00:14:07;93963.94;;;0.73;99.60
11682;BME280;5897;42.640;23.310;2023-01-29T00:16:34;93970.91;;;0.52;99.86
11682;BME280;5897;42.640;23.310;2023-01-29T00:19:02;93965.75;;;0.66;100.00
11682;BME280;5897;42.640;23.310;2023-01-29T00:21:29;93958.16;;;0.68;100.00
11682;BME280;5897;42.640;23.310;2023-01-29T00:23:56;93961.22;;;0.70;100.00
11682;BME280;5897;42.640;23.310;2023-01-29T00:26:23;93969.97;;;0.70;100.00
11682;BME280;5897;42.640;23.310;2023-01-29T00:28:50;93966.97;;;0.75;100.00
11682;BME280;5897;42.640;23.310;2023-01-29T00:31:18;93974.94;;;0.75;100.00
11682;BME280;5897;42.640;23.310;2023-01-29T00:33:46;93977.28;;;0.80;99.76
11682;BME280;5897;42.640;23.310;2023-01-29T00:36:15;93977.63;;;0.75;99.37
11682;BME280;5897;42.640;23.310;2023-01-29T00:38:42;93973.41;;;0.71;100.00
11682;BME280;5897;42.640;23.310;2023-01-29T00:41:12;93975.97;;;0.64;100.00
11682;BME280;5897;42.640;23.310;2023-01-29T00:43:57;93969.44;;;0.58;99.99
11682;BME280;5897;42.640;23.310;2023-01-29T00:46:41;93972.38;;;0.49;100.00
11682;BME280;5897;42.640;23.310;2023-01-29T00:49:08;93974.66;;;0.51;100.00
11682;BME280;5897;42.640;23.310;2023-01-29T00:51:37;93971.69;;;0.56;100.00
11682;BME280;5897;42.640;23.310;2023-01-29T00:54:05;93960.78;;;0.64;100.00
11682;BME280;5897;42.640;23.310;2023-01-29T00:56:33;93956.84;;;0.84;100.00
11682;BME280;5897;42.640;23.310;2023-01-29T00:59:00;93976.88;;;1.11;100.00
11682;BME280;5897;42.640;23.310;2023-01-29T01:01:27;93971.94;;;1.13;100.00
11682;BME280;5897;42.640;23.310;2023-01-29T01:04:11;93974.22;;;1.11;100.00
11682;BME280;5897;42.640;23.310;2023-01-29T01:06:40;93958.63;;;1.10;100.00
11682;BME280;5897;42.640;23.310;2023-01-29T01:09:08;93970.97;;;1.28;100.00
11682;BME280;5897;42.640;23.310;2023-01-29T01:11:53;93970.22;;;1.31;100.00
11682;BME280;5897;42.640;23.310;2023-01-29T01:14:20;93965.81;;;1.09;100.00
11682;BME280;5897;42.640;23.310;2023-01-29T01:16:48;93970.69;;;1.40;100.00
11682;BME280;5897;42.640;23.310;2023-01-29T01:19:15;93973.91;;;1.20;100.00
11682;BME280;5897;42.640;23.310;2023-01-29T01:21:43;93966.75;;;0.91;100.00
11682;BME280;5897;42.640;23.310;2023-01-29T01:24:12;93968.31;;;0.92;100.00
11682;BME280;5897;42.640;23.310;2023-01-29T01:26:39;93963.03;;;0.95;100.00
11682;BME280;5897;42.640;23.310;2023-01-29T01:29:06;93969.63;;;0.75;100.00
11682;BME280;5897;42.640;23.310;2023-01-29T01:31:33;93968.13;;;0.74;100.00
11682;BME280;5897;42.640;23.310;2023-01-29T01:34:00;93965.19;;;0.53;100.00
11682;BME280;5897;42.640;23.310;2023-01-29T01:36:27;93972.50;;;0.60;100.00
11682;BME280;5897;42.640;23.310;2023-01-29T01:38:55;93963.31;;;0.54;100.00
11682;BME280;5897;42.640;23.310;2023-01-29T01:41:22;93970.00;;;0.41;100.00
11682;BME280;5897;42.640;23.310;2023-01-29T01:43:51;93975.22;;;0.34;100.00
11682;BME280;5897;42.640;23.310;2023-01-29T01:46:18;93976.75;;;0.35;100.00
11682;BME280;5897;42.640;23.310;2023-01-29T01:48:48;93966.19;;;0.38;100.00
11682;BME280;5897;42.640;23.310;2023-01-29T01:51:17;93979.50;;;0.42;100.00
11682;BME280;5897;42.640;23.310;2023-01-29T01:53:49;93984.19;;;0.22;100.00
11682;BME280;5897;42.640;23.310;2023-01-29T01:56:22;93980.00;;;0.21;100.00
11682;BME280;5897;42.640;23.310;2023-01-29T01:58:53;93985.53;;;0.09;100.00
11682;BME280;5897;42.640;23.310;2023-01-29T02:01:22;93989.19;;;0.01;100.00
11682;BME280;5897;42.640;23.310;2023-01-29T02:03:54;93997.25;;;0.08;100.00
11682;BME280;5897;42.640;23.310;2023-01-29T02:06:40;93999.16;;;0.08;100.00
11682;BME280;5897;42.640;23.310;2023-01-29T02:09:30;93993.06;;;0.07;100.00
11682;BME280;5897;42.640;23.310;2023-01-29T02:12:01;93991.25;;;0.11;100.00
11682;BME280;5897;42.640;23.310;2023-01-29T02:14:29;93988.00;;;-0.01;100.00
11682;BME280;5897;42.640;23.310;2023-01-29T02:16:56;93991.88;;;0.31;100.00
11682;BME280;5897;42.640;23.310;2023-01-29T02:19:35;93984.69;;;0.64;100.00
11682;BME280;5897;42.640;23.310;2023-01-29T02:22:19;93993.16;;;0.73;100.00
11682;BME280;5897;42.640;23.310;2023-01-29T02:25:01;93994.97;;;0.99;100.00
11682;BME280;5897;42.640;23.310;2023-01-29T02:27:45;93998.16;;;1.11;100.00
11682;BME280;5897;42.640;23.310;2023-01-29T02:30:19;93999.69;;;1.12;100.00
11682;BME280;5897;42.640;23.310;2023-01-29T02:32:54;93999.75;;;1.19;100.00
11682;BME280;5897;42.640;23.310;2023-01-29T02:35:29;94006.72;;;1.31;100.00
11682;BME280;5897;42.640;23.310;2023-01-29T02:38:10;93993.31;;;1.24;100.00
11682;BME280;5897;42.640;23.310;2023-01-29T02:40:43;93996.13;;;1.38;100.00
11682;BME280;5897;42.640;23.310;2023-01-29T02:43:23;94011.28;;;1.34;100.00
11682;BME280;5897;42.640;23.310;2023-01-29T02:46:00;94016.13;;;1.25;100.00
11682;BME280;5897;42.640;23.310;2023-01-29T02:48:38;94018.28;;;1.49;100.00
11682;BME280;5897;42.640;23.310;2023-01-29T02:51:07;94023.88;;;1.37;100.00
11682;BME280;5897;42.640;23.310;2023-01-29T02:53:40;94021.81;;;1.20;100.00
11682;BME280;5897;42.640;23.310;2023-01-29T02:56:14;94022.09;;;1.11;100.00
11682;BME280;5897;42.640;23.310;2023-01-29T02:58:45;94009.28;;;0.87;100.00
11682;BME280;5897;42.640;23.310;2023-01-29T03:01:19;94020.72;;;0.91;100.00
11682;BME280;5897;42.640;23.310;2023-01-29T03:03:51;94019.16;;;0.87;100.00
11682;BME280;5897;42.640;23.310;2023-01-29T03:06:21;94018.34;;;0.83;100.00
11682;BME280;5897;42.640;23.310;2023-01-29T03:08:52;94019.53;;;0.56;100.00
11682;BME280;5897;42.640;23.310;2023-01-29T03:11:20;94011.97;;;0.58;100.00
11682;BME280;5897;42.640;23.310;2023-01-29T03:13:50;94019.72;;;0.40;100.00
11682;BME280;5897;42.640;23.310;2023-01-29T03:16:23;94022.38;;;0.40;100.00
11682;BME280;5897;42.640;23.310;2023-01-29T03:18:54;94030.03;;;0.45;100.00
11682;BME280;5897;42.640;23.310;2023-01-29T03:21:28;94022.91;;;0.23;100.00
11682;BME280;5897;42.640;23.310;2023-01-29T03:24:15;94025.59;;;0.27;100.00
11682;BME280;5897;42.640;23.310;2023-01-29T03:27:03;94033.63;;;0.30;100.00
11682;BME280;5897;42.640;23.310;2023-01-29T03:29:50;94037.00;;;0.27;100.00
11682;BME280;5897;42.640;23.310;2023-01-29T03:32:37;94034.34;;;0.27;100.00
11682;BME280;5897;42.640;23.310;2023-01-29T03:35:08;94034.34;;;0.27;100.00
11682;BME280;5897;42.640;23.310;2023-01-29T03:37:39;94035.31;;;0.16;100.00
11682;BME280;5897;42.640;23.310;2023-01-29T03:40:08;94038.13;;;0.26;100.00
11682;BME280;5897;42.640;23.310;2023-01-29T03:42:43;94036.00;;;0.39;100.00
11682;BME280;5897;42.640;23.310;2023-01-29T03:45:16;94027.56;;;0.30;100.00
11682;BME280;5897;42.640;23.310;2023-01-29T03:47:55;94029.91;;;0.35;100.00
11682;BME280;5897;42.640;23.310;2023-01-29T03:50:33;94031.56;;;0.46;100.00
11682;BME280;5897;42.640;23.310;2023-01-29T03:53:08;94027.38;;;0.45;100.00
11682;BME280;5897;42.640;23.310;2023-01-29T03:55:42;94035.44;;;0.52;100.00
11682;BME280;5897;42.640;23.310;2023-01-29T03:58:17;94027.06;;;0.50;100.00
11682;BME280;5897;42.640;23.310;2023-01-29T04:00:52;94029.31;;;0.48;100.00
11682;BME280;5897;42.640;23.310;2023-01-29T04:03:25;94026.03;;;0.58;100.00
11682;BME280;5897;42.640;23.310;2023-01-29T04:06:01;94018.75;;;0.52;100.00
11682;BME280;5897;42.640;23.310;2023-01-29T04:08:39;94027.09;;;0.54;100.00
11682;BME280;5897;42.640;23.310;2023-01-29T04:11:11;94022.91;;;0.23;100.00
11682;BME280;5897;42.640;23.310;2023-01-29T04:13:39;94024.28;;;0.40;100.00
11682;BME280;5897;42.640;23.310;2023-01-29T04:16:11;94033.25;;;0.32;100.00
11682;BME280;5897;42.640;23.310;2023-01-29T04:18:43;94034.34;;;0.27;100.00
11682;BME280;5897;42.640;23.310;2023-01-29T04:21:10;94036.47;;;0.18;100.00
11682;BME280;5897;42.640;23.310;2023-01-29T04:23:37;94038.69;;;0.13;100.00
11682;BME280;5897;42.640;23.310;2023-01-29T04:26:23;94050.69;;;0.03;100.00
11682;BME280;5897;42.640;23.310;2023-01-29T04:29:07;94041.75;;;0.15;100.00
11682;BME280;5897;42.640;23.310;2023-01-29T04:31:46;94037.81;;;0.05;100.00
11682;BME280;5897;42.640;23.310;2023-01-29T04:34:22;94050.38;;;0.08;100.00
11682;BME280;5897;42.640;23.310;2023-01-29T04:36:58;94052.94;;;0.01;100.00
11682;BME280;5897;42.640;23.310;2023-01-29T04:39:33;94043.19;;;0.09;100.00
11682;BME280;5897;42.640;23.310;2023-01-29T04:42:06;94045.06;;;0.08;100.00
11682;BME280;5897;42.640;23.310;2023-01-29T04:44:40;94054.44;;;0.02;100.00
11682;BME280;5897;42.640;23.310;2023-01-29T04:47:17;94059.91;;;0.09;100.00
11682;BME280;5897;42.640;23.310;2023-01-29T04:49:55;94042.94;;;0.17;100.00
11682;BME280;5897;42.640;23.310;2023-01-29T04:52:33;94046.19;;;0.07;100.00
11682;BME280;5897;42.640;23.310;2023-01-29T04:55:07;94052.22;;;0.04;100.00
11682;BME280;5897;42.640;23.310;2023-01-29T04:57:44;94051.50;;;0.07;100.00
11682;BME280;5897;42.640;23.310;2023-01-29T05:00:17;94054.63;;;0.13;100.00
11682;BME280;5897;42.640;23.310;2023-01-29T05:02:46;94052.06;;;0.20;100.00
11682;BME280;5897;42.640;23.310;2023-01-29T05:05:17;94050.16;;;0.46;100.00
11682;BME280;5897;42.640;23.310;2023-01-29T05:07:45;94050.78;;;0.36;100.00
11682;BME280;5897;42.640;23.310;2023-01-29T05:10:15;94054.56;;;0.61;100.00
11682;BME280;5897;42.640;23.310;2023-01-29T05:12:46;94052.78;;;0.72;100.00
11682;BME280;5897;42.640;23.310;2023-01-29T05:15:18;94053.03;;;0.60;100.00
11682;BME280;5897;42.640;23.310;2023-01-29T05:17:45;94051.81;;;0.54;100.00
11682;BME280;5897;42.640;23.310;2023-01-29T05:20:12;94064.41;;;0.61;100.00
11682;BME280;5897;42.640;23.310;2023-01-29T05:22:41;94066.31;;;0.60;100.00
11682;BME280;5897;42.640;23.310;2023-01-29T05:25:19;94066.78;;;0.69;100.00
11682;BME280;5897;42.640;23.310;2023-01-29T05:27:48;94068.06;;;0.79;100.00
11682;BME280;5897;42.640;23.310;2023-01-29T05:30:30;94072.13;;;0.69;100.00
11682;BME280;5897;42.640;23.310;2023-01-29T05:32:57;94071.63;;;0.60;99.55
11682;BME280;5897;42.640;23.310;2023-01-29T05:35:24;94070.41;;;0.54;100.00
11682;BME280;5897;42.640;23.310;2023-01-29T05:37:54;94076.09;;;0.53;99.51
11682;BME280;5897;42.640;23.310;2023-01-29T05:40:21;94079.31;;;0.39;99.84
11682;BME280;5897;42.640;23.310;2023-01-29T05:42:48;94082.63;;;0.33;100.00
11682;BME280;5897;42.640;23.310;2023-01-29T05:45:16;94080.47;;;0.42;100.00
11682;BME280;5897;42.640;23.310;2023-01-29T05:47:43;94076.25;;;0.37;100.00
11682;BME280;5897;42.640;23.310;2023-01-29T05:50:10;94079.16;;;0.29;100.00
11682;BME280;5897;42.640;23.310;2023-01-29T05:52:37;94079.22;;;0.32;100.00
11682;BME280;5897;42.640;23.310;2023-01-29T05:55:07;94089.34;;;0.27;100.00
11682;BME280;5897;42.640;23.310;2023-01-29T05:57:34;94085.78;;;0.16;100.00
11682;BME280;5897;42.640;23.310;2023-01-29T06:00:03;94088.72;;;0.11;100.00
11682;BME280;5897;42.640;23.310;2023-01-29T06:02:30;94080.41;;;0.12;100.00
11682;BME280;5897;42.640;23.310;2023-01-29T06:04:57;94093.53;;;0.28;100.00
11682;BME280;5897;42.640;23.310;2023-01-29T06:07:24;94096.59;;;0.26;100.00
11682;BME280;5897;42.640;23.310;2023-01-29T06:09:51;94101.75;;;0.19;100.00
11682;BME280;5897;42.640;23.310;2023-01-29T06:12:19;94106.09;;;0.05;100.00
11682;BME280;5897;42.640;23.310;2023-01-29T06:14:46;94111.59;;;0.15;100.00
11682;BME280;5897;42.640;23.310;2023-01-29T06:17:13;94112.97;;;0.06;100.00
11682;BME280;5897;42.640;23.310;2023-01-29T06:19:39;94113.00;;;0.09;100.00
11682;BME280;5897;42.640;23.310;2023-01-29T06:22:06;94117.94;;;0.11;100.00
11682;BME280;5897;42.640;23.310;2023-01-29T06:24:33;94124.19;;;0.44;100.00
11682;BME280;5897;42.640;23.310;2023-01-29T06:27:00;94121.44;;;0.67;100.00
11682;BME280;5897;42.640;23.310;2023-01-29T06:29:28;94126.53;;;0.79;100.00
11682;BME280;5897;42.640;23.310;2023-01-29T06:31:55;94122.78;;;0.80;100.00
11682;BME280;5897;42.640;23.310;2023-01-29T06:34:22;94131.56;;;0.84;100.00
11682;BME280;5897;42.640;23.310;2023-01-29T06:36:49;94126.19;;;0.80;100.00
11682;BME280;5897;42.640;23.310;2023-01-29T06:39:15;94140.38;;;1.17;100.00
11682;BME280;5897;42.640;23.310;2023-01-29T06:41:42;94143.34;;;1.12;100.00
11682;BME280;5897;42.640;23.310;2023-01-29T06:44:09;94140.84;;;1.26;100.00
11682;BME280;5897;42.640;23.310;2023-01-29T06:46:38;94135.00;;;1.47;100.00
11682;BME280;5897;42.640;23.310;2023-01-29T06:49:04;94137.97;;;1.42;100.00
11682;BME280;5897;42.640;23.310;2023-01-29T06:51:31;94141.94;;;1.22;100.00
11682;BME280;5897;42.640;23.310;2023-01-29T06:53:58;94143.31;;;1.09;100.00
11682;BME280;5897;42.640;23.310;2023-01-29T06:56:25;94147.13;;;1.11;100.00
11682;BME280;5897;42.640;23.310;2023-01-29T06:58:52;94138.97;;;0.97;100.00
11682;BME280;5897;42.640;23.310;2023-01-29T07:01:19;94151.91;;;0.99;100.00
11682;BME280;5897;42.640;23.310;2023-01-29T07:03:49;94146.50;;;0.92;100.00
11682;BME280;5897;42.640;23.310;2023-01-29T07:06:16;94153.91;;;0.79;100.00
11682;BME280;5897;42.640;23.310;2023-01-29T07:08:43;94157.09;;;0.88;100.00
11682;BME280;5897;42.640;23.310;2023-01-29T07:11:10;94159.75;;;0.88;100.00
11682;BME280;5897;42.640;23.310;2023-01-29T07:13:37;94152.09;;;0.83;100.00
11682;BME280;5897;42.640;23.310;2023-01-29T07:16:04;94160.53;;;0.92;100.00
11682;BME280;5897;42.640;23.310;2023-01-29T07:18:32;94166.69;;;0.96;100.00
11682;BME280;5897;42.640;23.310;2023-01-29T07:21:03;94166.78;;;1.03;100.00
11682;BME280;5897;42.640;23.310;2023-01-29T07:23:30;94175.19;;;1.05;100.00
11682;BME280;5897;42.640;23.310;2023-01-29T07:25:59;94174.75;;;1.03;100.00
11682;BME280;5897;42.640;23.310;2023-01-29T07:28:26;94176.94;;;0.94;100.00
11682;BME280;5897;42.640;23.310;2023-01-29T07:30:55;94176.59;;;0.99;100.00
11682;BME280;5897;42.640;23.310;2023-01-29T07:33:22;94180.84;;;1.04;100.00
11682;BME280;5897;42.640;23.310;2023-01-29T07:35:48;94189.97;;;1.03;100.00
11682;BME280;5897;42.640;23.310;2023-01-29T07:38:17;94172.91;;;1.07;100.00
11682;BME280;5897;42.640;23.310;2023-01-29T07:40:44;94175.09;;;1.02;100.00
11682;BME280;5897;42.640;23.310;2023-01-29T07:43:11;94172.41;;;0.98;100.00
11682;BME280;5897;42.640;23.310;2023-01-29T07:45:38;94176.31;;;1.08;100.00
11682;BME280;5897;42.640;23.310;2023-01-29T07:48:06;94181.91;;;0.99;100.00
11682;BME280;5897;42.640;23.310;2023-01-29T07:50:35;94192.97;;;1.01;100.00
11682;BME280;5897;42.640;23.310;2023-01-29T07:53:02;94179.59;;;0.94;100.00
11682;BME280;5897;42.640;23.310;2023-01-29T07:55:31;94188.16;;;1.10;100.00
11682;BME280;5897;42.640;23.310;2023-01-29T07:58:00;94188.06;;;1.03;100.00
11682;BME280;5897;42.640;23.310;2023-01-29T08:00:27;94191.91;;;1.06;100.00
11682;BME280;5897;42.640;23.310;2023-01-29T08:03:01;94164.47;;;0.72;100.00
11682;BME280;5897;42.640;23.310;2023-01-29T08:05:27;94196.66;;;0.93;100.00
11682;BME280;5897;42.640;23.310;2023-01-29T08:07:54;94197.72;;;0.89;100.00
11682;BME280;5897;42.640;23.310;2023-01-29T08:10:21;94195.22;;;0.73;100.00
11682;BME280;5897;42.640;23.310;2023-01-29T08:12:54;94196.47;;;0.79;100.00
11682;BME280;5897;42.640;23.310;2023-01-29T08:15:21;94197.72;;;0.89;100.00
11682;BME280;5897;42.640;23.310;2023-01-29T08:17:48;94194.63;;;0.83;100.00
11682;BME280;5897;42.640;23.310;2023-01-29T08:20:16;94195.56;;;0.94;100.00
11682;BME280;5897;42.640;23.310;2023-01-29T08:22:43;94185.72;;;0.98;100.00
11682;BME280;5897;42.640;23.310;2023-01-29T08:25:10;94177.41;;;1.03;100.00
11682;BME280;5897;42.640;23.310;2023-01-29T08:27:37;94189.31;;;1.42;100.00
11682;BME280;5897;42.640;23.310;2023-01-29T08:30:08;94193.59;;;1.50;100.00
11682;BME280;5897;42.640;23.310;2023-01-29T08:32:35;94205.56;;;1.63;100.00
11682;BME280;5897;42.640;23.310;2023-01-29T08:35:02;94207.16;;;1.71;100.00
11682;BME280;5897;42.640;23.310;2023-01-29T08:37:37;94201.22;;;1.52;100.00
11682;BME280;5897;42.640;23.310;2023-01-29T08:40:05;94207.06;;;1.61;100.00
11682;BME280;5897;42.640;23.310;2023-01-29T08:42:33;94213.28;;;1.72;100.00
11682;BME280;5897;42.640;23.310;2023-01-29T08:45:00;94212.47;;;1.68;100.00
11682;BME280;5897;42.640;23.310;2023-01-29T08:47:27;94211.75;;;1.71;100.00
11682;BME280;5897;42.640;23.310;2023-01-29T08:49:54;94212.09;;;1.69;100.00
11682;BME280;5897;42.640;23.310;2023-01-29T08:52:20;94216.72;;;1.76;100.00
11682;BME280;5897;42.640;23.310;2023-01-29T08:54:48;94226.81;;;1.60;100.00
11682;BME280;5897;42.640;23.310;2023-01-29T08:57:15;94214.56;;;1.22;100.00
11682;BME280;5897;42.640;23.310;2023-01-29T08:59:42;94233.19;;;1.22;100.00
11682;BME280;5897;42.640;23.310;2023-01-29T09:02:10;94232.97;;;1.08;100.00
11682;BME280;5897;42.640;23.310;2023-01-29T09:04:37;94232.84;;;0.98;100.00
11682;BME280;5897;42.640;23.310;2023-01-29T09:07:03;94241.13;;;0.93;100.00
11682;BME280;5897;42.640;23.310;2023-01-29T09:09:30;94237.19;;;0.83;100.00
11682;BME280;5897;42.640;23.310;2023-01-29T09:11:58;94230.94;;;0.72;100.00
11682;BME280;5897;42.640;23.310;2023-01-29T09:14:25;94233.69;;;0.79;100.00
11682;BME280;5897;42.640;23.310;2023-01-29T09:16:52;94237.97;;;0.87;100.00
11682;BME280;5897;42.640;23.310;2023-01-29T09:19:19;94230.38;;;0.86;100.00
11682;BME280;5897;42.640;23.310;2023-01-29T09:21:46;94233.25;;;0.74;100.00
11682;BME280;5897;42.640;23.310;2023-01-29T09:24:14;94230.16;;;0.72;100.00
11682;BME280;5897;42.640;23.310;2023-01-29T09:26:41;94225.84;;;0.90;100.00
11682;BME280;5897;42.640;23.310;2023-01-29T09:29:10;94231.66;;;0.95;100.00
11682;BME280;5897;42.640;23.310;2023-01-29T09:31:37;94228.78;;;1.07;100.00
11682;BME280;5897;42.640;23.310;2023-01-29T09:34:03;94224.38;;;0.92;100.00
11682;BME280;5897;42.640;23.310;2023-01-29T09:36:30;94228.13;;;0.88;100.00
11682;BME280;5897;42.640;23.310;2023-01-29T09:38:57;94231.06;;;1.05;100.00
11682;BME280;5897;42.640;23.310;2023-01-29T09:41:34;94235.25;;;1.06;100.00
11682;BME280;5897;42.640;23.310;2023-01-29T09:44:12;94225.41;;;1.10;100.00
11682;BME280;5897;42.640;23.310;2023-01-29T09:46:43;94207.56;;;1.11;100.00
11682;BME280;5897;42.640;23.310;2023-01-29T09:49:19;94215.88;;;1.09;100.00
11682;BME280;5897;42.640;23.310;2023-01-29T09:51:49;94221.16;;;1.06;100.00
11682;BME280;5897;42.640;23.310;2023-01-29T09:54:22;94217.38;;;1.07;100.00
11682;BME280;5897;42.640;23.310;2023-01-29T09:56:53;94219.97;;;1.03;100.00
11682;BME280;5897;42.640;23.310;2023-01-29T09:59:24;94211.38;;;1.13;100.00
11682;BME280;5897;42.640;23.310;2023-01-29T10:01:58;94203.56;;;1.27;100.00
11682;BME280;5897;42.640;23.310;2023-01-29T10:04:45;94205.34;;;1.79;100.00
11682;BME280;5897;42.640;23.310;2023-01-29T10:10:21;94196.50;;;2.04;100.00
11682;BME280;5897;42.640;23.310;2023-01-29T10:12:59;94199.59;;;2.10;100.00
11682;BME280;5897;42.640;23.310;2023-01-29T10:15:39;94196.28;;;2.23;100.00
11682;BME280;5897;42.640;23.310;2023-01-29T10:18:37;94196.47;;;2.41;100.00
11682;BME280;5897;42.640;23.310;2023-01-29T10:21:29;94197.94;;;2.35;100.00
11682;BME280;5897;42.640;23.310;2023-01-29T10:24:10;94189.56;;;2.36;100.00
11682;BME280;5897;42.640;23.310;2023-01-29T10:26:40;94188.09;;;2.42;100.00
11682;BME280;5897;42.640;23.310;2023-01-29T10:29:12;94195.97;;;2.28;100.00
11682;BME280;5897;42.640;23.310;2023-01-29T10:31:46;94195.34;;;2.05;100.00
11682;BME280;5897;42.640;23.310;2023-01-29T10:34:20;94190.53;;;1.81;100.00
11682;BME280;5897;42.640;23.310;2023-01-29T10:36:50;94181.91;;;1.58;99.11
11682;BME280;5897;42.640;23.310;2023-01-29T10:39:18;94188.22;;;1.47;99.96
11682;BME280;5897;42.640;23.310;2023-01-29T10:41:58;94186.50;;;1.28;99.40
11682;BME280;5897;42.640;23.310;2023-01-29T10:44:36;94192.84;;;1.20;100.00
11682;BME280;5897;42.640;23.310;2023-01-29T10:47:20;94176.72;;;1.06;100.00
11682;BME280;5897;42.640;23.310;2023-01-29T10:50:03;94186.16;;;1.33;100.00
11682;BME280;5897;42.640;23.310;2023-01-29T10:52:47;94190.81;;;1.40;100.00
11682;BME280;5897;42.640;23.310;2023-01-29T10:55:25;94183.97;;;1.39;100.00
11682;BME280;5897;42.640;23.310;2023-01-29T10:58:01;94168.91;;;1.20;100.00
11682;BME280;5897;42.640;23.310;2023-01-29T11:00:35;94165.25;;;1.02;100.00
11682;BME280;5897;42.640;23.310;2023-01-29T11:03:13;94172.41;;;0.98;100.00
11682;BME280;5897;42.640;23.310;2023-01-29T11:05:54;94177.84;;;0.79;100.00
11682;BME280;5897;42.640;23.310;2023-01-29T11:08:25;94168.25;;;1.01;100.00
11682;BME280;5897;42.640;23.310;2023-01-29T11:11:00;94171.00;;;1.08;100.00
11682;BME280;5897;42.640;23.310;2023-01-29T11:13:31;94167.78;;;1.21;100.00
11682;BME280;5897;42.640;23.310;2023-01-29T11:16:00;94165.81;;;1.15;100.00
11682;BME280;5897;42.640;23.310;2023-01-29T11:18:47;94166.47;;;1.08;100.00
11682;BME280;5897;42.640;23.310;2023-01-29T11:21:14;94159.94;;;1.02;100.00
11682;BME280;5897;42.640;23.310;2023-01-29T11:23:42;94157.66;;;1.04;100.00
11682;BME280;5897;42.640;23.310;2023-01-29T11:26:11;94158.84;;;1.07;100.00
11682;BME280;5897;42.640;23.310;2023-01-29T11:28:39;94162.28;;;1.07;100.00
11682;BME280;5897;42.640;23.310;2023-01-29T11:31:34;94157.59;;;0.97;100.00
11682;BME280;5897;42.640;23.310;2023-01-29T11:34:11;94152.22;;;0.94;100.00
11682;BME280;5897;42.640;23.310;2023-01-29T11:36:38;94144.78;;;1.06;100.00
11682;BME280;5897;42.640;23.310;2023-01-29T11:39:24;94140.06;;;1.22;100.00
11682;BME280;5897;42.640;23.310;2023-01-29T11:41:54;94136.72;;;1.32;100.00
11682;BME280;5897;42.640;23.310;2023-01-29T11:44:30;94134.50;;;1.34;100.00
11682;BME280;5897;42.640;23.310;2023-01-29T11:47:09;94124.72;;;1.45;100.00
11682;BME280;5897;42.640;23.310;2023-01-29T11:49:40;94113.38;;;1.52;100.00
11682;BME280;5897;42.640;23.310;2023-01-29T11:52:10;94116.78;;;1.49;100.00
11682;BME280;5897;42.640;23.310;2023-01-29T11:54:43;94123.88;;;1.71;99.14
11682;BME280;5897;42.640;23.310;2023-01-29T11:57:25;94123.78;;;1.64;98.50
11682;BME280;5897;42.640;23.310;2023-01-29T11:59:54;94122.06;;;1.45;98.55
11682;BME280;5897;42.640;23.310;2023-01-29T12:02:26;94131.00;;;1.63;99.03
11682;BME280;5897;42.640;23.310;2023-01-29T12:04:59;94123.66;;;1.53;100.00
11682;BME280;5897;42.640;23.310;2023-01-29T12:07:27;94123.34;;;1.95;100.00
11682;BME280;5897;42.640;23.310;2023-01-29T12:09:56;94110.22;;;2.19;100.00
11682;BME280;5897;42.640;23.310;2023-01-29T12:12:29;94115.66;;;2.33;100.00
11682;BME280;5897;42.640;23.310;2023-01-29T12:15:18;94103.91;;;2.41;100.00
11682;BME280;5897;42.640;23.310;2023-01-29T12:17:57;94105.06;;;2.44;100.00
11682;BME280;5897;42.640;23.310;2023-01-29T12:20:30;94111.31;;;2.62;100.00
11682;BME280;5897;42.640;23.310;2023-01-29T12:23:05;94109.91;;;2.89;100.00
11682;BME280;5897;42.640;23.310;2023-01-29T12:25:42;94116.84;;;3.00;100.00
11682;BME280;5897;42.640;23.310;2023-01-29T12:28:21;94119.16;;;3.02;100.00
11682;BME280;5897;42.640;23.310;2023-01-29T12:30:56;94119.63;;;3.21;100.00
11682;BME280;5897;42.640;23.310;2023-01-29T12:33:33;94119.97;;;3.13;100.00
11682;BME280;5897;42.640;23.310;2023-01-29T12:36:08;94126.06;;;3.10;98.25
11682;BME280;5897;42.640;23.310;2023-01-29T12:38:38;94125.59;;;2.94;93.10
11682;BME280;5897;42.640;23.310;2023-01-29T12:41:10;94125.75;;;2.61;96.69
11682;BME280;5897;42.640;23.310;2023-01-29T12:43:47;94114.19;;;2.39;97.85
11682;BME280;5897;42.640;23.310;2023-01-29T12:46:21;94119.56;;;2.46;96.00
11682;BME280;5897;42.640;23.310;2023-01-29T12:48:51;94108.75;;;2.25;95.49
11682;BME280;5897;42.640;23.310;2023-01-29T12:51:24;94116.25;;;2.13;95.55
11682;BME280;5897;42.640;23.310;2023-01-29T12:53:55;94119.69;;;2.13;96.34
11682;BME280;5897;42.640;23.310;2023-01-29T12:56:28;94119.09;;;1.90;98.96
11682;BME280;5897;42.640;23.310;2023-01-29T12:58:59;94108.59;;;2.08;97.87
11682;BME280;5897;42.640;23.310;2023-01-29T13:01:31;94114.38;;;2.13;98.03
11682;BME280;5897;42.640;23.310;2023-01-29T13:04:02;94124.94;;;2.06;96.50
11682;BME280;5897;42.640;23.310;2023-01-29T13:06:37;94125.81;;;2.21;96.16
11682;BME280;5897;42.640;23.310;2023-01-29T13:09:11;94128.28;;;1.96;95.48
11682;BME280;5897;42.640;23.310;2023-01-29T13:11:41;94116.22;;;2.09;97.07
11682;BME280;5897;42.640;23.310;2023-01-29T13:14:17;94113.97;;;2.15;97.04
11682;BME280;5897;42.640;23.310;2023-01-29T13:16:48;94113.19;;;2.11;95.62
11682;BME280;5897;42.640;23.310;2023-01-29T13:19:22;94108.44;;;1.90;97.97
11682;BME280;5897;42.640;23.310;2023-01-29T13:21:55;94114.84;;;2.29;96.01
11682;BME280;5897;42.640;23.310;2023-01-29T13:24:29;94112.25;;;2.36;96.09
11682;BME280;5897;42.640;23.310;2023-01-29T13:27:00;94110.00;;;2.38;95.33
11682;BME280;5897;42.640;23.310;2023-01-29T13:29:28;94111.44;;;2.90;94.19